Saratoga Springs, NY (12866)

10:14 AM EDT on August 21, 2014 (GMT -0400)
KNYSARAT7 | Change Station
CLOSE
Current Station
Personal Weather Station
Location: SARATOGA SPRINGS, NY
Elevation: 309 ft
Nearby Weather Stations

Elev 309 ft 43.06 °N, 73.78 °W | Updated 4 minutes ago

Overcast
Overcast
66.0 °F
Feels Like 66.0 °F
N
0.0
Wind Variable Wind from SE
Gusts 3.0 mph

Today
High -- | Low -- °F
--% Chance of Precip.
Yesterday
High -- | Low -- °F
Precip. -- in
6:07 AM 7:48 PM
Waning Crescent, 14% visible
Pressure 30.05 in
Visibility 10.0 miles
Clouds Scattered Clouds 700 ft
Mostly Cloudy 3400 ft
Overcast 5500 ft
Dew Point 64 °F
Humidity 94%
Rainfall 1.16 in
Snow Depth Not available.
UV 1 out of 12
Pollen 5.80 out of 12
Ozone Good
PM2.5 Moderate
Flu Activity Not available.
METAR KSCH 211252Z 00000KT 10SM SCT007 BKN034 OVC055 19/17 A3005

More Conditions Fewer Conditions

Pressure 30.05 in
Visibility 10.0 miles
Clouds Scattered Clouds 700 ft
Mostly Cloudy 3400 ft
Overcast 5500 ft
Dew Point 64 °F
Humidity 94%
Rainfall 1.16 in
Snow Depth Not available.
UV 1 out of 12
Pollen 5.80 out of 12
Ozone Good
PM2.5 Moderate
Flu Activity Not available.
METAR KSCH 211252Z 00000KT 10SM SCT007 BKN034 OVC055 19/17 A3005

More Conditions Fewer Conditions

10-Day Weather Forecast

Almanac

Astronomy

Aug. 21, 2014 Rise Set
Actual Time 6:07 AM EDT 7:48 PM EDT
Civil Twilight 5:37 AM EDT 8:18 PM EDT
Nautical Twilight 5:00 AM EDT 8:54 PM EDT
Astronomical Twilight 4:21 AM EDT 9:33 PM EDT
Moon 2:32 AM EDT 5:17 PM EDT
Length of Visible Light 14h 41m
Length of Day
13h 40m
Tomorrow will be 2m 41s shorter.
Waning Crescent, 14% of the Moon is Illuminated
Today
Waning Crescent
Aug 25
New
Sep 2
First Quarter
Sep 8
Full
Sep 15
Last Quarter

Today's Extremes

State Highs State Lows

Community

WunderPhotos

Upload Photos

1,745,921 photos uploaded!

WunderBlogs® & News

Nearby

Air Quality

  Air Quality AQ Index Pollutant
Yesterday Moderate
OZONE
Yesterday Good
PM2.5
Current Moderate
PM2.5
Current Good
OZONE
Thursday Good
PM2.5
Thursday Good
OZONE

Snow Depth

Station Depth Elevation
No new snow has been reported.

Earthquake Activity

City Distance Mag. Time & Date
No recent earthquake activity has been reported nearby.
Minimum magnitude displayed is 2.5.

Coastal Water Temperatures

Place Temperature
No Stations Reporting

Nearby Weather Stations